Time;durP1;ratioP1;P1;durP2;ratioP2;P2;SDS_P1;SDS_P2;PMS_P1;PMS_P2;Temp;Humidity;BMP_temperature;BMP_pressure;BME280_temperature;BME280_humidity;BME280_pressure;Samples;Min_cycle;Max_cycle;Signal;HPM_P1;HPM_P2
2024/01/31 00:02:22;;;;;;;7.70;6.80;;;23.80;51.50;;;;;;221940;1264;22528;-49
2024/01/31 00:07:27;;;;;;;10.70;7.10;;;23.80;51.60;;;;;;222029;1256;22830;-53
2024/01/31 00:12:31;;;;;;;8.00;6.50;;;23.70;51.40;;;;;;221806;1264;22732;-54
2024/01/31 00:17:36;;;;;;;7.50;5.90;;;23.60;51.60;;;;;;221721;1254;24189;-51
2024/01/31 00:22:40;;;;;;;8.00;6.00;;;23.40;51.50;;;;;;222251;1269;22548;-55
2024/01/31 00:27:45;;;;;;;7.90;6.20;;;23.40;51.50;;;;;;222152;1246;24193;-49
2024/01/31 00:32:49;;;;;;;8.80;6.60;;;23.70;51.00;;;;;;222208;1258;24136;-52
2024/01/31 00:37:53;;;;;;;9.90;6.90;;;23.60;50.90;;;;;;223600;1264;24216;-50
2024/01/31 00:42:57;;;;;;;8.40;7.00;;;23.60;50.70;;;;;;223413;1267;22536;-53
2024/01/31 00:48:02;;;;;;;7.50;6.40;;;23.60;50.60;;;;;;223417;1269;22632;-51
2024/01/31 00:53:06;;;;;;;7.30;6.50;;;23.50;50.60;;;;;;224349;1267;22802;-52
2024/01/31 00:58:10;;;;;;;8.60;6.40;;;23.50;50.40;;;;;;221846;1264;22884;-53
2024/01/31 01:03:14;;;;;;;8.00;6.50;;;23.40;50.40;;;;;;221939;1264;24663;-53
2024/01/31 01:08:19;;;;;;;7.90;6.40;;;23.30;50.50;;;;;;221847;1264;22532;-48
2024/01/31 01:13:23;;;;;;;8.40;6.50;;;23.20;50.30;;;;;;221944;1266;24226;-51
2024/01/31 01:18:27;;;;;;;9.00;6.70;;;23.00;50.80;;;;;;221915;1269;24221;-52
2024/01/31 01:23:31;;;;;;;7.40;6.20;;;23.00;51.00;;;;;;221998;1269;24266;-49
2024/01/31 01:28:35;;;;;;;7.20;5.90;;;23.30;50.60;;;;;;221933;1264;24307;-52
2024/01/31 01:33:40;;;;;;;7.30;5.70;;;23.30;50.30;;;;;;222195;1264;24333;-51
2024/01/31 01:38:46;;;;;;;7.20;6.10;;;23.40;50.20;;;;;;221946;1267;24123;-52
2024/01/31 01:43:50;;;;;;;8.50;6.30;;;23.50;50.00;;;;;;221604;1258;22520;-53
2024/01/31 01:48:54;;;;;;;7.10;6.40;;;23.50;50.20;;;;;;222102;1255;24194;-49
2024/01/31 01:53:59;;;;;;;7.00;6.00;;;23.50;49.70;;;;;;221954;1267;24295;-50
2024/01/31 01:59:03;;;;;;;7.50;5.70;;;23.50;49.60;;;;;;221843;1260;22634;-51
2024/01/31 02:04:08;;;;;;;7.70;5.50;;;23.50;50.00;;;;;;221750;1269;24225;-52
2024/01/31 02:09:13;;;;;;;8.40;6.10;;;23.50;49.40;;;;;;222242;1264;22521;-52
2024/01/31 02:14:18;;;;;;;5.60;5.10;;;23.50;49.90;;;;;;221943;1269;25388;-51
2024/01/31 02:19:22;;;;;;;6.40;5.60;;;23.50;49.70;;;;;;222125;1253;22528;-51
2024/01/31 02:24:26;;;;;;;7.60;5.80;;;23.50;49.80;;;;;;222016;1264;24193;-52
2024/01/31 02:29:30;;;;;;;6.40;5.80;;;23.40;49.70;;;;;;221955;1261;22679;-52
2024/01/31 02:34:34;;;;;;;7.60;5.50;;;23.40;50.10;;;;;;221940;1260;24238;-52
2024/01/31 02:39:38;;;;;;;9.20;5.80;;;23.30;50.50;;;;;;221876;1269;24193;-52
2024/01/31 02:44:42;;;;;;;5.60;5.00;;;23.30;49.80;;;;;;220938;1268;23517;-50
2024/01/31 02:49:48;;;;;;;5.80;4.90;;;23.10;49.80;;;;;;220988;1264;25029;-52
2024/01/31 02:54:52;;;;;;;5.90;5.00;;;23.00;49.90;;;;;;220972;1261;22581;-54
2024/01/31 02:59:57;;;;;;;7.00;5.20;;;23.10;50.60;;;;;;221020;1262;22598;-51
2024/01/31 03:05:01;;;;;;;6.50;5.30;;;23.20;50.20;;;;;;221806;1263;22543;-47
2024/01/31 03:10:06;;;;;;;6.10;5.30;;;23.40;49.50;;;;;;222032;1266;23096;-51
2024/01/31 03:15:11;;;;;;;5.40;4.80;;;23.50;49.40;;;;;;221958;1269;22520;-51
2024/01/31 03:20:15;;;;;;;5.20;4.70;;;23.50;49.50;;;;;;222073;1263;26643;-50
2024/01/31 03:25:20;;;;;;;5.40;4.90;;;23.60;49.10;;;;;;222152;1267;23437;-52
2024/01/31 03:30:24;;;;;;;7.80;5.20;;;23.60;49.00;;;;;;222346;1263;24228;-50
2024/01/31 03:35:29;;;;;;;5.70;4.80;;;23.40;49.20;;;;;;221868;1254;24288;-51
2024/01/31 03:40:33;;;;;;;6.60;5.30;;;23.40;49.20;;;;;;221686;1269;25352;-54
2024/01/31 03:45:37;;;;;;;5.90;4.80;;;23.40;49.20;;;;;;222199;1257;22581;-51
2024/01/31 03:50:42;;;;;;;5.50;4.70;;;23.40;49.10;;;;;;221891;1269;22516;-51
2024/01/31 03:55:46;;;;;;;4.70;4.20;;;23.30;49.70;;;;;;222002;1266;24193;-53
2024/01/31 04:00:50;;;;;;;5.40;4.80;;;23.30;49.70;;;;;;222003;1263;25340;-52
2024/01/31 04:05:55;;;;;;;8.10;4.80;;;23.20;49.60;;;;;;222145;1264;24195;-52
2024/01/31 04:10:59;;;;;;;5.20;4.70;;;23.30;49.50;;;;;;222158;1263;22552;-51
2024/01/31 04:16:04;;;;;;;5.80;4.40;;;23.30;49.60;;;;;;222070;1262;22526;-53
2024/01/31 04:21:08;;;;;;;4.80;4.30;;;23.20;49.40;;;;;;226206;1263;26180;-51
2024/01/31 04:26:12;;;;;;;5.50;4.50;;;23.10;49.60;;;;;;223209;1254;22522;-51
2024/01/31 04:31:17;;;;;;;4.20;3.80;;;23.10;49.80;;;;;;222183;1269;25229;-49
2024/01/31 04:36:22;;;;;;;5.00;4.60;;;23.20;49.50;;;;;;222076;1263;24202;-51
2024/01/31 04:41:26;;;;;;;4.80;3.90;;;23.30;49.40;;;;;;221697;1264;24202;-51
2024/01/31 04:46:30;;;;;;;5.10;4.30;;;23.40;49.00;;;;;;221980;1266;23128;-51
2024/01/31 04:51:40;;;;;;;4.10;3.70;;;23.50;48.90;;;;;;221945;1269;24196;-50
2024/01/31 04:56:44;;;;;;;4.70;4.30;;;23.60;48.70;;;;;;222311;1263;22527;-50
2024/01/31 05:01:49;;;;;;;4.40;3.90;;;23.60;48.70;;;;;;221863;1269;24225;-52
2024/01/31 05:06:54;;;;;;;3.70;3.40;;;23.40;48.70;;;;;;221956;1257;25360;-53
2024/01/31 05:11:58;;;;;;;4.40;4.00;;;23.50;48.70;;;;;;221895;1267;24224;-51
2024/01/31 05:17:03;;;;;;;4.30;3.90;;;23.50;48.60;;;;;;221744;1263;23553;-53
2024/01/31 05:22:10;;;;;;;4.20;3.40;;;23.60;48.60;;;;;;222076;1255;25901;-51
2024/01/31 05:27:15;;;;;;;4.40;4.00;;;23.50;48.60;;;;;;222904;1267;587759;-52
2024/01/31 05:32:19;;;;;;;4.80;4.00;;;23.50;48.80;;;;;;223408;1258;24417;-52
2024/01/31 05:37:24;;;;;;;3.90;3.50;;;23.50;48.80;;;;;;225252;1263;24272;-50
2024/01/31 05:42:28;;;;;;;4.60;4.20;;;23.50;48.50;;;;;;221908;1264;23889;-53
2024/01/31 05:47:33;;;;;;;3.90;3.60;;;23.30;48.90;;;;;;221754;1255;25453;-52
2024/01/31 05:52:38;;;;;;;4.90;4.30;;;23.20;49.10;;;;;;221694;1256;22563;-52
2024/01/31 05:57:48;;;;;;;4.00;3.70;;;23.10;50.00;;;;;;221856;1263;24762;-53
2024/01/31 06:02:52;;;;;;;4.30;3.90;;;23.10;49.20;;;;;;221850;1263;24301;-51
2024/01/31 06:08:04;;;;;;;7.00;3.90;;;23.00;49.50;;;;;;221602;1256;24225;-51
2024/01/31 06:13:11;;;;;;;3.80;3.50;;;23.00;49.40;;;;;;221586;1262;24293;-52
2024/01/31 06:18:16;;;;;;;3.70;3.40;;;23.00;49.50;;;;;;222055;1256;23778;-52
2024/01/31 06:23:21;;;;;;;3.70;3.40;;;23.00;49.60;;;;;;222135;1269;22681;-53
2024/01/31 06:28:26;;;;;;;4.20;3.70;;;22.90;49.80;;;;;;222286;1263;24221;-50
2024/01/31 06:33:35;;;;;;;3.90;3.50;;;22.80;49.90;;;;;;221684;1262;24193;-52
2024/01/31 06:38:39;;;;;;;18.40;4.50;;;22.80;50.00;;;;;;222165;1256;24245;-54
2024/01/31 06:43:44;;;;;;;4.20;3.70;;;22.70;50.10;;;;;;222505;1262;24199;-51
2024/01/31 06:48:49;;;;;;;4.20;3.90;;;22.80;50.60;;;;;;222067;1261;24256;-51
2024/01/31 06:53:54;;;;;;;4.00;3.60;;;23.00;49.80;;;;;;222269;1257;24189;-49
2024/01/31 06:59:00;;;;;;;7.20;3.90;;;23.10;50.30;;;;;;222574;1261;22555;-54
2024/01/31 07:04:04;;;;;;;5.70;4.00;;;23.30;51.80;;;;;;222030;1262;23933;-49
2024/01/31 07:09:09;;;;;;;7.20;4.80;;;23.30;54.50;;;;;;222334;1246;24203;-51
2024/01/31 07:14:14;;;;;;;7.10;4.40;;;23.30;52.80;;;;;;222526;1269;24079;-53
2024/01/31 07:19:18;;;;;;;8.40;3.80;;;23.40;53.20;;;;;;227981;1258;22531;-52
2024/01/31 07:24:23;;;;;;;8.90;3.80;;;23.40;53.10;;;;;;222652;1263;22506;-56
2024/01/31 07:29:33;;;;;;;6.30;4.00;;;23.30;53.30;;;;;;221726;1266;22512;-53
2024/01/31 07:34:37;;;;;;;8.40;3.80;;;23.20;53.70;;;;;;221807;1269;25363;-53
2024/01/31 07:39:41;;;;;;;9.90;3.80;;;23.20;53.10;;;;;;221929;1262;22537;-54
2024/01/31 07:44:46;;;;;;;14.70;4.20;;;23.10;53.10;;;;;;229921;1263;22347;-54
2024/01/31 07:49:50;;;;;;;11.50;3.70;;;23.40;52.00;;;;;;229811;1263;22320;-55
2024/01/31 07:54:55;;;;;;;5.70;3.70;;;23.50;51.60;;;;;;224950;1266;26961;-55
2024/01/31 07:59:59;;;;;;;4.60;3.50;;;23.50;51.10;;;;;;227892;1267;24203;-54
2024/01/31 08:05:04;;;;;;;7.10;4.30;;;23.50;51.10;;;;;;223305;1250;24209;-56
2024/01/31 08:10:12;;;;;;;6.80;3.90;;;23.40;50.90;;;;;;222589;1266;22547;-54
2024/01/31 08:15:17;;;;;;;8.10;4.40;;;23.20;51.10;;;;;;222152;1267;22610;-55
2024/01/31 08:20:22;;;;;;;5.10;4.10;;;23.00;51.30;;;;;;222143;1262;22520;-53
2024/01/31 08:25:26;;;;;;;5.00;4.10;;;23.00;51.40;;;;;;221910;1265;22521;-57
2024/01/31 08:30:31;;;;;;;5.10;4.20;;;23.00;51.30;;;;;;222054;1265;23735;-57
2024/01/31 08:35:36;;;;;;;5.80;4.50;;;22.80;51.30;;;;;;221640;1262;22523;-57
2024/01/31 08:40:40;;;;;;;5.00;3.70;;;22.80;52.00;;;;;;221835;1267;22521;-59
2024/01/31 08:45:45;;;;;;;6.00;3.90;;;22.80;51.00;;;;;;221995;1266;22546;-57
2024/01/31 08:50:51;;;;;;;6.00;4.40;;;22.90;50.70;;;;;;221570;1266;24807;-57
2024/01/31 08:55:55;;;;;;;5.60;4.00;;;22.80;50.80;;;;;;221572;1256;22592;-58
2024/01/31 09:01:11;;;;;;;4.30;3.80;;;22.60;51.10;;;;;;221826;1267;22576;-58
2024/01/31 09:06:16;;;;;;;4.00;3.40;;;23.00;50.50;;;;;;221895;1266;22513;-58
2024/01/31 09:11:21;;;;;;;4.70;3.80;;;23.10;50.70;;;;;;222107;1263;22645;-59
2024/01/31 09:16:25;;;;;;;5.50;3.30;;;23.10;50.20;;;;;;221737;1269;24276;-59
2024/01/31 09:21:30;;;;;;;5.80;3.90;;;23.20;50.10;;;;;;221785;1247;25333;-57
2024/01/31 09:26:34;;;;;;;5.50;3.70;;;23.30;49.90;;;;;;221726;1265;24262;-58
2024/01/31 09:31:39;;;;;;;4.00;3.60;;;23.30;49.80;;;;;;222075;1257;25331;-58
2024/01/31 09:36:46;;;;;;;4.50;3.70;;;23.30;49.70;;;;;;222061;1268;22658;-59
2024/01/31 09:41:50;;;;;;;5.40;4.30;;;23.30;50.00;;;;;;222280;1256;25362;-57
2024/01/31 09:46:56;;;;;;;3.80;3.50;;;23.30;49.60;;;;;;221937;1266;22556;-57
2024/01/31 09:52:03;;;;;;;3.60;3.30;;;23.30;49.30;;;;;;222263;1269;23600;-57
2024/01/31 09:57:07;;;;;;;3.90;3.50;;;23.20;49.70;;;;;;222030;1263;24136;-57
2024/01/31 10:02:13;;;;;;;4.40;3.60;;;23.20;49.50;;;;;;222048;1269;22517;-58
2024/01/31 10:07:24;;;;;;;4.60;4.00;;;23.20;49.80;;;;;;222094;1269;25082;-58
2024/01/31 10:12:28;;;;;;;4.00;3.60;;;23.10;49.60;;;;;;221972;1256;24665;-58
2024/01/31 10:17:34;;;;;;;3.40;3.10;;;23.10;49.60;;;;;;221711;1270;24246;-57
2024/01/31 10:22:39;;;;;;;4.30;3.80;;;23.00;49.60;;;;;;222035;1270;22628;-57
2024/01/31 10:27:53;;;;;;;3.80;3.50;;;23.00;49.50;;;;;;221642;1270;25403;-57
2024/01/31 10:33:01;;;;;;;4.50;3.90;;;23.00;49.30;;;;;;222709;1263;22530;-59
2024/01/31 10:38:10;;;;;;;3.60;3.30;;;23.00;49.20;;;;;;227827;1258;25230;-55
2024/01/31 10:43:16;;;;;;;3.70;3.40;;;23.20;48.80;;;;;;226869;1267;23044;-56
2024/01/31 10:48:22;;;;;;;4.20;3.90;;;23.20;48.70;;;;;;223975;1269;22521;-57
2024/01/31 10:53:29;;;;;;;5.40;4.20;;;23.10;48.70;;;;;;221806;1263;22517;-57
2024/01/31 10:58:35;;;;;;;4.10;3.50;;;23.00;49.00;;;;;;222044;1259;22517;-57
2024/01/31 11:03:45;;;;;;;3.90;3.50;;;22.80;49.50;;;;;;221879;1266;22633;-55
2024/01/31 11:08:50;;;;;;;3.90;3.50;;;22.70;49.80;;;;;;222350;1263;25288;-55
2024/01/31 11:13:56;;;;;;;4.10;3.10;;;22.70;49.60;;;;;;222289;1267;22548;-56
2024/01/31 11:19:04;;;;;;;4.10;3.70;;;22.70;49.70;;;;;;222183;1269;25353;-56
2024/01/31 11:24:13;;;;;;;3.50;3.20;;;22.80;49.60;;;;;;222301;1266;22645;-56
2024/01/31 11:29:18;;;;;;;4.70;3.30;;;22.90;49.60;;;;;;222332;1269;23941;-56
2024/01/31 11:34:24;;;;;;;3.30;3.00;;;23.20;48.80;;;;;;222119;1269;24748;-55
2024/01/31 11:39:28;;;;;;;3.40;3.10;;;23.20;48.80;;;;;;222038;1266;23499;-57
2024/01/31 11:44:35;;;;;;;3.50;3.10;;;23.30;48.70;;;;;;222139;1256;22543;-58
2024/01/31 11:49:39;;;;;;;3.10;2.70;;;23.30;48.50;;;;;;222187;1262;25366;-56
2024/01/31 11:54:44;;;;;;;3.30;3.00;;;23.20;48.70;;;;;;221911;1263;22517;-57
2024/01/31 11:59:50;;;;;;;3.50;2.90;;;23.30;48.90;;;;;;222090;1266;24224;-57
2024/01/31 12:04:58;;;;;;;4.50;3.30;;;23.30;48.20;;;;;;221963;1263;24215;-55
2024/01/31 12:10:10;;;;;;;3.30;3.00;;;23.30;48.20;;;;;;221743;1269;22521;-56
2024/01/31 12:15:19;;;;;;;3.30;3.00;;;23.40;48.10;;;;;;221561;1267;22520;-56
2024/01/31 12:20:25;;;;;;;3.10;2.80;;;23.30;48.50;;;;;;221657;1269;25384;-56
2024/01/31 12:25:31;;;;;;;3.10;2.90;;;23.30;48.20;;;;;;221748;1269;24537;-57
2024/01/31 12:30:42;;;;;;;5.10;2.60;;;23.20;48.30;;;;;;221448;1257;23392;-57
2024/01/31 12:36:11;;;;;;;4.00;2.50;;;23.20;48.70;;;;;;222484;1266;22538;-56
2024/01/31 12:41:24;;;;;;;2.80;2.60;;;23.30;48.20;;;;;;222472;1263;24193;-56
2024/01/31 12:46:45;;;;;;;2.60;2.40;;;23.30;48.20;;;;;;222205;1250;22777;-56
2024/01/31 12:51:50;;;;;;;3.30;3.00;;;23.30;48.20;;;;;;221994;1266;22523;-55
2024/01/31 12:56:56;;;;;;;2.90;2.70;;;23.10;48.70;;;;;;222097;1269;22650;-56
2024/01/31 13:02:04;;;;;;;2.70;2.50;;;23.00;48.60;;;;;;221991;1263;25337;-56
2024/01/31 13:07:08;;;;;;;2.50;2.30;;;22.90;49.00;;;;;;222385;1249;22561;-54
2024/01/31 13:12:15;;;;;;;3.40;2.80;;;22.90;48.80;;;;;;222236;1266;25496;-56
2024/01/31 13:17:19;;;;;;;3.50;3.30;;;23.00;48.80;;;;;;222335;1269;22636;-56
2024/01/31 13:22:26;;;;;;;5.30;2.60;;;23.20;51.10;;;;;;221998;1269;26509;-57
2024/01/31 13:27:30;;;;;;;4.30;2.90;;;23.30;51.30;;;;;;222222;1269;22517;-56
2024/01/31 13:32:35;;;;;;;3.30;2.50;;;23.40;51.60;;;;;;222308;1269;25256;-56
2024/01/31 13:37:40;;;;;;;3.10;2.50;;;23.40;51.00;;;;;;222244;1262;22633;-57
2024/01/31 13:42:47;;;;;;;3.00;2.60;;;23.50;50.90;;;;;;222204;1269;22529;-57
2024/01/31 13:47:53;;;;;;;2.50;2.30;;;23.40;50.70;;;;;;222162;1257;24156;-56
2024/01/31 13:52:58;;;;;;;4.60;2.80;;;23.50;51.00;;;;;;221831;1263;22874;-56
2024/01/31 13:58:03;;;;;;;2.70;2.20;;;23.60;51.00;;;;;;221970;1263;22549;-55
2024/01/31 14:03:08;;;;;;;3.90;2.80;;;23.50;50.80;;;;;;221873;1269;22538;-57
2024/01/31 14:08:15;;;;;;;2.50;2.30;;;23.50;51.00;;;;;;221794;1263;22969;-55
2024/01/31 14:13:19;;;;;;;8.10;2.30;;;23.40;50.80;;;;;;222033;1263;24183;-57
2024/01/31 14:18:24;;;;;;;2.50;2.10;;;23.30;51.30;;;;;;222222;1263;22522;-57
2024/01/31 14:23:29;;;;;;;2.40;2.00;;;23.30;51.50;;;;;;222250;1269;22743;-57
2024/01/31 14:28:48;;;;;;;3.40;2.00;;;23.30;51.70;;;;;;226955;1254;22800;-56
2024/01/31 14:33:53;;;;;;;2.90;2.50;;;23.40;51.30;;;;;;222599;1258;22550;-57
2024/01/31 14:38:59;;;;;;;2.70;2.10;;;23.40;51.30;;;;;;227601;1266;22549;-51
2024/01/31 14:44:04;;;;;;;3.20;2.50;;;23.40;52.80;;;;;;224505;1263;24267;-55
2024/01/31 14:49:12;;;;;;;3.70;2.80;;;23.40;52.60;;;;;;226169;1264;22565;-57
2024/01/31 14:54:17;;;;;;;3.90;2.50;;;23.30;53.00;;;;;;226780;1263;22527;-55
2024/01/31 14:59:24;;;;;;;4.10;2.60;;;23.40;52.70;;;;;;223321;1263;22773;-54
2024/01/31 15:04:45;;;;;;;4.40;2.20;;;23.40;52.50;;;;;;225807;1264;22535;-56
2024/01/31 15:09:53;;;;;;;2.40;2.20;;;23.40;53.20;;;;;;228714;1264;22789;-58
2024/01/31 15:15:02;;;;;;;7.60;2.30;;;23.50;52.90;;;;;;223865;1266;24225;-52
2024/01/31 15:20:10;;;;;;;2.30;2.10;;;23.50;52.60;;;;;;222493;1272;25421;-55
2024/01/31 15:25:15;;;;;;;2.60;2.20;;;23.40;53.20;;;;;;222696;1271;22570;-52
2024/01/31 15:30:19;;;;;;;2.90;2.60;;;23.30;53.50;;;;;;222258;1272;22523;-50
2024/01/31 15:35:24;;;;;;;2.50;2.30;;;23.20;52.80;;;;;;221663;1272;24232;-52
2024/01/31 15:40:30;;;;;;;3.00;2.60;;;23.10;53.00;;;;;;221047;1264;24225;-53
2024/01/31 15:45:35;;;;;;;2.30;2.10;;;23.10;53.50;;;;;;221753;1272;24205;-55
2024/01/31 15:50:40;;;;;;;4.40;3.20;;;23.00;53.20;;;;;;221240;1272;22604;-54
2024/01/31 15:55:44;;;;;;;4.20;2.70;;;22.90;55.40;;;;;;221593;1272;24190;-49
2024/01/31 16:00:48;;;;;;;6.40;2.90;;;23.10;54.60;;;;;;220791;1274;22642;-53
2024/01/31 16:05:54;;;;;;;3.80;3.10;;;23.20;54.20;;;;;;221087;1267;22566;-53
2024/01/31 16:10:59;;;;;;;3.70;3.10;;;23.50;54.20;;;;;;221875;1269;24098;-51
2024/01/31 16:16:05;;;;;;;6.70;2.60;;;23.60;53.80;;;;;;222069;1259;24068;-52
2024/01/31 16:21:11;;;;;;;2.80;2.50;;;23.60;53.60;;;;;;222027;1263;22888;-53
2024/01/31 16:26:16;;;;;;;3.70;2.50;;;23.60;54.00;;;;;;221794;1263;22584;-53
2024/01/31 16:31:21;;;;;;;3.30;2.50;;;23.70;53.80;;;;;;221947;1255;24267;-52
2024/01/31 16:36:27;;;;;;;12.80;2.30;;;23.70;52.90;;;;;;222671;1263;22538;-49
2024/01/31 16:41:32;;;;;;;6.80;2.80;;;23.70;53.50;;;;;;222223;1260;26758;-50
2024/01/31 16:46:36;;;;;;;3.20;2.00;;;23.60;53.00;;;;;;222163;1264;25132;-54
2024/01/31 16:51:41;;;;;;;5.60;2.70;;;23.70;53.00;;;;;;223434;1266;22932;-51
2024/01/31 16:56:50;;;;;;;4.80;2.60;;;23.90;52.10;;;;;;223463;1266;24286;-53
2024/01/31 17:01:55;;;;;;;3.80;2.10;;;23.60;52.00;;;;;;222989;1269;24282;-55
2024/01/31 17:07:25;;;;;;;2.60;1.90;;;23.60;51.90;;;;;;221658;1266;23009;-52
2024/01/31 17:13:25;;;;;;;2.70;2.50;;;23.60;52.20;;;;;;222397;1267;22505;-54
2024/01/31 17:18:46;;;;;;;4.10;2.30;;;23.70;52.30;;;;;;222582;1263;25297;-55
2024/01/31 17:23:57;;;;;;;3.20;2.40;;;23.70;51.40;;;;;;221953;1269;22520;-55
2024/01/31 17:29:08;;;;;;;2.10;2.00;;;23.50;51.60;;;;;;226252;1269;829881;-51
2024/01/31 17:34:19;;;;;;;2.60;2.00;;;23.50;51.70;;;;;;222082;1269;22517;-55
2024/01/31 17:39:38;;;;;;;4.80;2.70;;;23.60;51.00;;;;;;222167;1264;22642;-52
2024/01/31 17:45:00;;;;;;;2.50;2.00;;;23.50;50.90;;;;;;222103;1269;22545;-54
2024/01/31 17:50:34;;;;;;;3.20;2.20;;;23.30;51.40;;;;;;221905;1266;25328;-53
2024/01/31 17:56:45;;;;;;;5.50;2.60;;;23.20;51.00;;;;;;222124;1266;26487;-55
2024/01/31 18:01:55;;;;;;;3.20;2.40;;;23.30;50.90;;;;;;221826;1257;25571;-53
2024/01/31 18:08:17;;;;;;;2.90;2.40;;;23.20;51.10;;;;;;222171;1266;25281;-54
2024/01/31 18:13:25;;;;;;;2.60;2.40;;;23.10;51.00;;;;;;222643;1269;25370;-54
2024/01/31 18:18:33;;;;;;;2.60;2.30;;;23.10;51.00;;;;;;222123;1269;24341;-55
2024/01/31 18:23:49;;;;;;;2.20;1.90;;;22.90;50.70;;;;;;221953;1254;22578;-53
2024/01/31 18:28:55;;;;;;;2.30;2.10;;;22.90;50.70;;;;;;222168;1263;24455;-54
2024/01/31 18:34:00;;;;;;;5.80;2.20;;;22.90;50.70;;;;;;222132;1269;25351;-57
2024/01/31 18:39:06;;;;;;;3.60;2.20;;;22.90;50.80;;;;;;221950;1269;25344;-52
2024/01/31 18:44:11;;;;;;;4.40;2.20;;;22.80;50.50;;;;;;222119;1254;22543;-52
2024/01/31 18:49:18;;;;;;;13.00;2.70;;;23.00;51.00;;;;;;221899;1264;24365;-55
2024/01/31 18:54:23;;;;;;;8.20;2.40;;;23.00;51.30;;;;;;222241;1264;22527;-53
2024/01/31 18:59:28;;;;;;;14.20;2.80;;;23.30;51.30;;;;;;221818;1259;25474;-53
2024/01/31 19:04:33;;;;;;;6.20;2.60;;;23.60;50.30;;;;;;221739;1253;24229;-55
2024/01/31 19:09:37;;;;;;;6.40;2.20;;;23.50;51.00;;;;;;221935;1269;24888;-55
2024/01/31 19:14:42;;;;;;;7.10;3.20;;;23.50;51.10;;;;;;221939;1255;25474;-54
2024/01/31 19:19:46;;;;;;;4.70;2.40;;;23.50;50.80;;;;;;221853;1254;22702;-52
2024/01/31 19:24:53;;;;;;;6.80;2.20;;;23.40;51.00;;;;;;222529;1264;24199;-51
2024/01/31 19:29:58;;;;;;;7.50;2.10;;;23.50;51.30;;;;;;222124;1266;25510;-48
2024/01/31 19:35:05;;;;;;;4.30;2.40;;;23.50;51.00;;;;;;222050;1267;22531;-52
2024/01/31 19:40:10;;;;;;;7.10;2.90;;;23.50;50.00;;;;;;222159;1264;22537;-52
2024/01/31 19:45:14;;;;;;;3.40;2.40;;;23.50;50.20;;;;;;221887;1263;22528;-54
2024/01/31 19:50:22;;;;;;;3.80;2.80;;;23.40;51.10;;;;;;221686;1268;23313;-51
2024/01/31 19:55:26;;;;;;;4.10;2.90;;;23.40;50.30;;;;;;221838;1263;24193;-52
2024/01/31 20:00:32;;;;;;;5.40;3.70;;;23.20;50.80;;;;;;222206;1260;22989;-54
2024/01/31 20:05:37;;;;;;;6.70;3.40;;;23.10;50.60;;;;;;221924;1256;25832;-52
2024/01/31 20:10:42;;;;;;;9.40;3.30;;;23.10;51.50;;;;;;222115;1250;24272;-55
2024/01/31 20:15:47;;;;;;;5.10;3.60;;;23.10;50.80;;;;;;222186;1264;22907;-54
2024/01/31 20:20:51;;;;;;;13.30;3.40;;;23.10;50.70;;;;;;221892;1254;25327;-54
2024/01/31 20:25:59;;;;;;;7.90;3.30;;;23.10;51.00;;;;;;221670;1258;24391;-53
2024/01/31 20:31:12;;;;;;;5.20;3.30;;;23.00;51.20;;;;;;222422;1264;24212;-53
2024/01/31 20:36:20;;;;;;;4.70;3.20;;;23.10;50.90;;;;;;222250;1263;23104;-56
2024/01/31 20:41:29;;;;;;;4.20;3.10;;;22.90;50.80;;;;;;222182;1268;24201;-52
2024/01/31 20:46:35;;;;;;;3.10;2.80;;;22.90;51.10;;;;;;222144;1267;22658;-54
2024/01/31 20:51:43;;;;;;;6.60;3.30;;;22.80;51.20;;;;;;222317;1264;22752;-54
2024/01/31 20:56:52;;;;;;;5.40;3.80;;;22.70;51.20;;;;;;222197;1264;25460;-55
2024/01/31 21:01:58;;;;;;;4.60;3.00;;;22.70;51.30;;;;;;221799;1256;24272;-54
2024/01/31 21:07:06;;;;;;;4.30;3.70;;;22.70;51.40;;;;;;222319;1264;22748;-56
2024/01/31 21:12:16;;;;;;;6.00;3.30;;;22.90;51.20;;;;;;222610;1264;22616;-52
2024/01/31 21:17:23;;;;;;;4.10;3.40;;;23.10;50.90;;;;;;222117;1253;22524;-54
2024/01/31 21:22:31;;;;;;;4.30;3.90;;;23.30;50.50;;;;;;222005;1266;22538;-55
2024/01/31 21:27:38;;;;;;;4.00;3.50;;;23.40;50.30;;;;;;221760;1264;24312;-54
2024/01/31 21:32:45;;;;;;;3.70;3.30;;;23.40;50.00;;;;;;222002;1254;22540;-50
2024/01/31 21:37:54;;;;;;;20.50;4.30;;;23.30;50.70;;;;;;222032;1259;22522;-53
2024/01/31 21:43:01;;;;;;;9.70;3.90;;;23.20;53.60;;;;;;222035;1256;22516;-53
2024/01/31 21:48:09;;;;;;;7.90;4.20;;;23.40;55.50;;;;;;222237;1266;25481;-56
2024/01/31 21:53:17;;;;;;;6.90;4.40;;;23.50;53.20;;;;;;222035;1257;22578;-48
2024/01/31 21:58:25;;;;;;;6.50;5.00;;;23.30;52.70;;;;;;222010;1256;25408;-53
2024/01/31 22:03:33;;;;;;;6.60;4.70;;;23.40;52.50;;;;;;222103;1266;22944;-52
2024/01/31 22:09:02;;;;;;;5.00;4.20;;;23.40;52.70;;;;;;222110;1263;22517;-52
2024/01/31 22:14:10;;;;;;;9.30;4.20;;;23.30;53.10;;;;;;222377;1266;24527;-53
2024/01/31 22:19:16;;;;;;;10.10;4.40;;;23.30;52.60;;;;;;222060;1264;22534;-52
2024/01/31 22:24:24;;;;;;;6.80;6.10;;;23.30;53.70;;;;;;222884;1266;22586;-50
2024/01/31 22:29:38;;;;;;;12.50;5.10;;;23.30;51.30;;;;;;222304;1254;22523;-52
2024/01/31 22:34:55;;;;;;;7.30;5.40;;;23.20;53.30;;;;;;221913;1266;22543;-51
2024/01/31 22:40:00;;;;;;;7.30;5.50;;;23.30;52.60;;;;;;222307;1246;24192;-49
2024/01/31 22:45:07;;;;;;;5.60;5.00;;;23.30;52.50;;;;;;221971;1264;22529;-52
2024/01/31 22:50:12;;;;;;;9.30;5.00;;;23.30;52.40;;;;;;221813;1263;24361;-52
2024/01/31 22:55:17;;;;;;;5.70;4.50;;;23.40;51.90;;;;;;221835;1269;22576;-52
2024/01/31 23:00:21;;;;;;;6.80;4.60;;;23.60;52.10;;;;;;222005;1263;22543;-53
2024/01/31 23:05:26;;;;;;;8.60;5.20;;;23.40;51.70;;;;;;221963;1269;24729;-53
2024/01/31 23:10:30;;;;;;;5.80;5.20;;;23.50;51.90;;;;;;222052;1266;24285;-51
2024/01/31 23:15:35;;;;;;;5.70;4.90;;;23.40;51.90;;;;;;222156;1253;24336;-51
2024/01/31 23:20:40;;;;;;;5.80;5.00;;;23.40;51.70;;;;;;222106;1263;23154;-51
2024/01/31 23:25:45;;;;;;;6.90;5.80;;;23.40;51.70;;;;;;222173;1263;24314;-52
2024/01/31 23:30:50;;;;;;;7.60;5.50;;;23.40;51.70;;;;;;222367;1267;24234;-51
2024/01/31 23:35:54;;;;;;;6.70;5.00;;;23.30;51.60;;;;;;222189;1256;23020;-50
2024/01/31 23:40:59;;;;;;;5.90;5.30;;;23.30;51.40;;;;;;221839;1260;22534;-52
2024/01/31 23:46:03;;;;;;;6.50;5.10;;;23.20;52.00;;;;;;221914;1256;23455;-52
2024/01/31 23:51:08;;;;;;;5.50;4.90;;;23.10;51.90;;;;;;222134;1256;22484;-50
2024/01/31 23:56:13;;;;;;;7.90;5.70;;;23.10;52.00;;;;;;222033;1259;22525;-50
